Time;durP1;ratioP1;P1;durP2;ratioP2;P2;SDS_P1;SDS_P2;PMS_P1;PMS_P2;Temp;Humidity;BMP_temperature;BMP_pressure;BME280_temperature;BME280_humidity;BME280_pressure;Samples;Min_cycle;Max_cycle;Signal;HPM_P1;HPM_P2
2023/05/22 00:01:26;;;;;;;33.92;30.92;;;17.50;99.90;;;;;;5003429;28;20432;-72
2023/05/22 00:03:53;;;;;;;32.75;30.08;;;17.50;99.90;;;;;;4992776;28;20874;-72
2023/05/22 00:06:20;;;;;;;33.22;30.13;;;17.50;99.90;;;;;;5001968;28;20758;-72
2023/05/22 00:08:47;;;;;;;33.70;30.80;;;17.40;99.90;;;;;;5001333;28;20444;-73
2023/05/22 00:11:16;;;;;;;34.20;31.20;;;17.40;99.90;;;;;;4994713;28;20527;-72
2023/05/22 00:13:42;;;;;;;32.22;29.52;;;17.40;99.90;;;;;;5003172;28;20433;-71
2023/05/22 00:16:09;;;;;;;32.88;30.00;;;17.40;99.90;;;;;;4985760;28;20780;-72
2023/05/22 00:18:36;;;;;;;31.05;28.45;;;17.40;99.90;;;;;;4996591;28;20532;-72
2023/05/22 00:21:03;;;;;;;30.50;27.90;;;17.40;99.90;;;;;;4998284;28;20464;-72
2023/05/22 00:23:29;;;;;;;30.15;27.65;;;17.30;99.90;;;;;;4992129;28;20445;-72
2023/05/22 00:25:56;;;;;;;28.60;26.30;;;17.30;99.90;;;;;;4988960;28;20439;-72
2023/05/22 00:28:25;;;;;;;28.75;26.25;;;17.30;99.90;;;;;;4996169;28;20436;-71
2023/05/22 00:30:51;;;;;;;27.27;25.02;;;17.20;99.90;;;;;;4994654;28;20841;-72
2023/05/22 00:33:18;;;;;;;28.60;26.20;;;17.30;99.90;;;;;;4995269;28;20452;-72
2023/05/22 00:35:45;;;;;;;26.98;24.60;;;17.20;99.90;;;;;;4997986;28;20434;-72
2023/05/22 00:38:28;;;;;;;27.37;24.97;;;17.30;99.90;;;;;;5001001;28;20462;-72
2023/05/22 00:40:55;;;;;;;27.45;25.25;;;17.20;99.90;;;;;;4986766;28;20537;-72
2023/05/22 00:43:23;;;;;;;27.58;25.23;;;17.20;99.90;;;;;;4994579;28;20429;-72
2023/05/22 00:45:51;;;;;;;26.20;24.10;;;17.20;99.90;;;;;;4990559;28;20970;-72
2023/05/22 00:48:18;;;;;;;26.20;24.10;;;17.10;99.90;;;;;;4996637;28;20510;-72
2023/05/22 00:50:45;;;;;;;26.77;24.58;;;17.10;99.90;;;;;;5001749;28;20432;-72
2023/05/22 00:53:12;;;;;;;26.50;24.20;;;17.10;99.90;;;;;;4988401;28;20795;-72
2023/05/22 00:55:39;;;;;;;24.33;22.17;;;17.10;99.90;;;;;;4987330;28;20426;-72
2023/05/22 00:58:06;;;;;;;23.87;21.87;;;17.10;99.90;;;;;;4988327;28;20626;-72
2023/05/22 01:00:35;;;;;;;24.02;22.13;;;17.10;99.90;;;;;;4995847;28;20438;-72
2023/05/22 01:03:03;;;;;;;23.50;21.60;;;17.10;99.90;;;;;;4996123;28;20447;-71
2023/05/22 01:05:30;;;;;;;22.98;21.17;;;17.10;99.90;;;;;;4992210;28;20447;-72
2023/05/22 01:07:56;;;;;;;21.88;20.08;;;17.00;99.90;;;;;;4987577;28;20426;-73
2023/05/22 01:10:23;;;;;;;23.17;21.17;;;17.00;99.90;;;;;;4984653;28;20469;-72
2023/05/22 01:12:58;;;;;;;21.23;19.45;;;17.00;99.90;;;;;;4994719;28;20421;-72
2023/05/22 01:15:31;;;;;;;20.05;18.45;;;17.10;99.90;;;;;;4995690;28;20438;-72
2023/05/22 01:18:18;;;;;;;21.53;19.80;;;17.10;99.90;;;;;;4983287;28;20839;-72
2023/05/22 01:20:50;;;;;;;21.63;19.83;;;17.10;99.90;;;;;;4994269;28;21145;-73
2023/05/22 01:23:52;;;;;;;21.92;20.13;;;17.10;99.90;;;;;;4989214;28;20442;-72
2023/05/22 01:26:31;;;;;;;22.52;20.55;;;17.10;99.90;;;;;;4975606;28;20440;-71
2023/05/22 01:29:15;;;;;;;22.95;21.25;;;17.10;99.90;;;;;;4992375;28;20417;-71
2023/05/22 01:31:45;;;;;;;24.27;22.17;;;17.20;99.90;;;;;;4987878;28;20505;-72
2023/05/22 01:34:13;;;;;;;23.30;21.50;;;17.10;99.90;;;;;;4992190;28;20421;-72
2023/05/22 01:36:41;;;;;;;22.98;21.08;;;17.10;99.90;;;;;;4998696;28;20429;-72
2023/05/22 01:39:09;;;;;;;25.10;23.00;;;17.10;99.90;;;;;;4992359;28;20519;-73
2023/05/22 01:41:36;;;;;;;25.60;23.30;;;17.10;99.90;;;;;;4983539;28;20533;-72
2023/05/22 01:44:02;;;;;;;25.15;23.05;;;17.10;99.90;;;;;;4985248;28;20434;-72
2023/05/22 01:46:30;;;;;;;24.55;22.55;;;17.10;99.90;;;;;;4984904;28;20798;-74
2023/05/22 01:48:58;;;;;;;24.65;22.70;;;17.00;99.90;;;;;;4980019;28;20441;-73
2023/05/22 01:51:36;;;;;;;24.10;22.10;;;17.00;99.90;;;;;;4982949;28;20924;-73
2023/05/22 01:54:11;;;;;;;24.00;22.00;;;17.00;99.90;;;;;;4993320;28;21056;-75
2023/05/22 01:56:47;;;;;;;24.40;22.30;;;17.00;99.90;;;;;;4991218;28;20764;-72
2023/05/22 01:59:21;;;;;;;24.30;22.20;;;17.00;99.90;;;;;;4984488;28;20435;-72
2023/05/22 02:01:50;;;;;;;25.33;23.33;;;17.00;99.90;;;;;;4988947;28;20592;-74
2023/05/22 02:04:21;;;;;;;24.25;22.23;;;16.90;99.90;;;;;;4999133;28;21153;-72
2023/05/22 02:06:48;;;;;;;24.90;22.90;;;16.90;99.90;;;;;;4986025;28;20434;-72
2023/05/22 02:09:16;;;;;;;24.90;22.88;;;16.90;99.90;;;;;;4983951;28;20459;-72
2023/05/22 02:11:43;;;;;;;25.57;23.37;;;16.90;99.90;;;;;;4986016;28;21990;-71
2023/05/22 02:14:11;;;;;;;25.77;23.60;;;16.80;99.90;;;;;;4994879;28;20445;-72
2023/05/22 02:16:38;;;;;;;26.80;24.60;;;16.80;99.90;;;;;;5002957;28;20424;-73
2023/05/22 02:19:06;;;;;;;26.38;24.17;;;16.80;99.90;;;;;;5004906;28;20434;-72
2023/05/22 02:21:35;;;;;;;26.42;24.02;;;16.80;99.90;;;;;;5004644;28;20448;-72
2023/05/22 02:24:02;;;;;;;25.40;23.20;;;16.80;99.90;;;;;;5003246;28;20440;-74
2023/05/22 02:26:29;;;;;;;25.70;23.60;;;16.70;99.90;;;;;;5005379;28;20452;-72
2023/05/22 02:28:56;;;;;;;27.15;24.95;;;16.70;99.90;;;;;;4998540;28;20430;-72
2023/05/22 02:31:22;;;;;;;26.67;24.38;;;16.70;99.90;;;;;;5003723;28;20447;-73
2023/05/22 02:33:49;;;;;;;27.40;25.00;;;16.70;99.90;;;;;;5008189;28;20679;-71
2023/05/22 02:36:16;;;;;;;27.65;25.35;;;16.70;99.90;;;;;;5006467;28;20579;-72
2023/05/22 02:38:44;;;;;;;28.55;26.05;;;16.70;99.90;;;;;;5005053;28;20436;-73
2023/05/22 02:41:11;;;;;;;28.77;26.48;;;16.70;99.90;;;;;;5003339;28;20436;-72
2023/05/22 02:43:37;;;;;;;28.23;25.92;;;16.70;99.90;;;;;;5005534;28;20424;-72
2023/05/22 02:46:04;;;;;;;28.77;26.35;;;16.60;99.90;;;;;;5003646;28;20779;-72
2023/05/22 02:48:31;;;;;;;28.40;26.10;;;16.60;99.90;;;;;;5007354;28;20490;-72
2023/05/22 02:50:58;;;;;;;28.80;26.40;;;16.60;99.90;;;;;;5007513;28;20857;-72
2023/05/22 02:53:25;;;;;;;28.03;25.60;;;16.60;99.90;;;;;;5002567;28;20448;-72
2023/05/22 02:55:53;;;;;;;29.80;27.30;;;16.60;99.90;;;;;;4998530;28;20436;-72
2023/05/22 02:58:22;;;;;;;28.85;26.25;;;16.60;99.90;;;;;;5004981;28;20496;-72
2023/05/22 03:00:48;;;;;;;29.42;26.92;;;16.60;99.90;;;;;;4996935;28;20498;-73
2023/05/22 03:03:16;;;;;;;28.90;26.30;;;16.60;99.90;;;;;;5004020;28;20440;-74
2023/05/22 03:05:43;;;;;;;29.52;27.02;;;16.60;99.90;;;;;;5004966;28;20469;-72
2023/05/22 03:08:10;;;;;;;30.83;28.23;;;16.60;99.90;;;;;;5003396;28;20443;-72
2023/05/22 03:10:37;;;;;;;32.38;29.58;;;16.50;99.90;;;;;;5003284;28;20498;-72
2023/05/22 03:13:05;;;;;;;31.38;28.67;;;16.50;99.90;;;;;;4999466;28;20792;-72
2023/05/22 03:15:32;;;;;;;35.10;32.00;;;16.50;99.90;;;;;;4990078;28;20562;-72
2023/05/22 03:17:59;;;;;;;36.75;33.55;;;16.50;99.90;;;;;;4985710;28;20430;-74
2023/05/22 03:20:26;;;;;;;38.88;35.47;;;16.50;99.90;;;;;;4985160;28;20418;-72
2023/05/22 03:22:52;;;;;;;41.42;37.70;;;16.50;99.90;;;;;;4984019;28;20434;-72
2023/05/22 03:25:20;;;;;;;42.63;38.65;;;16.50;99.90;;;;;;4990215;28;20460;-73
2023/05/22 03:27:47;;;;;;;44.55;40.45;;;16.40;99.90;;;;;;4985105;28;20421;-73
2023/05/22 03:30:15;;;;;;;43.95;39.85;;;16.40;99.90;;;;;;4987939;28;20445;-72
2023/05/22 03:32:42;;;;;;;44.20;39.90;;;16.40;99.90;;;;;;4987355;28;20986;-72
2023/05/22 03:35:09;;;;;;;44.05;40.05;;;16.30;99.90;;;;;;4982342;28;20438;-72
2023/05/22 03:37:36;;;;;;;43.25;39.25;;;16.30;99.90;;;;;;4981296;28;20438;-72
2023/05/22 03:40:04;;;;;;;43.33;39.30;;;16.30;99.90;;;;;;4980299;28;20458;-72
2023/05/22 03:42:31;;;;;;;42.65;38.75;;;16.30;99.90;;;;;;4971462;28;20615;-74
2023/05/22 03:44:58;;;;;;;40.67;36.97;;;16.30;99.90;;;;;;4985704;28;20426;-73
2023/05/22 03:47:26;;;;;;;39.38;35.78;;;16.20;99.90;;;;;;4984614;28;20790;-72
2023/05/22 03:49:52;;;;;;;37.42;34.00;;;16.20;99.90;;;;;;4984810;28;20457;-72
2023/05/22 03:52:19;;;;;;;38.42;35.13;;;16.20;99.90;;;;;;4985936;28;20440;-72
2023/05/22 03:54:46;;;;;;;39.72;36.08;;;16.20;99.90;;;;;;4979648;28;20846;-72
2023/05/22 03:57:12;;;;;;;41.53;37.47;;;16.20;99.90;;;;;;4982626;28;20442;-73
2023/05/22 03:59:39;;;;;;;39.67;35.88;;;16.20;99.90;;;;;;4988204;28;20466;-74
2023/05/22 04:02:06;;;;;;;37.50;34.00;;;16.20;99.90;;;;;;4984860;28;20687;-72
2023/05/22 04:04:37;;;;;;;36.58;33.28;;;16.20;99.90;;;;;;4992866;28;20442;-72
2023/05/22 04:07:06;;;;;;;34.28;31.27;;;16.20;99.90;;;;;;4982151;28;20438;-72
2023/05/22 04:09:35;;;;;;;33.67;30.60;;;16.20;99.90;;;;;;4978997;28;20444;-72
2023/05/22 04:12:02;;;;;;;34.33;31.33;;;16.20;99.90;;;;;;4986607;28;20435;-73
2023/05/22 04:14:29;;;;;;;34.05;30.77;;;16.20;99.90;;;;;;4995738;28;20708;-72
2023/05/22 04:16:56;;;;;;;35.28;31.88;;;16.20;99.90;;;;;;5003445;28;20622;-72
2023/05/22 04:19:22;;;;;;;34.05;30.92;;;16.20;99.90;;;;;;4991969;28;20422;-73
2023/05/22 04:21:51;;;;;;;36.53;33.30;;;16.10;99.90;;;;;;4984997;28;20418;-73
2023/05/22 04:24:18;;;;;;;35.13;32.00;;;16.10;99.90;;;;;;5000680;28;20828;-72
2023/05/22 04:26:44;;;;;;;33.10;30.02;;;16.10;99.90;;;;;;4994102;28;20438;-70
2023/05/22 04:29:13;;;;;;;34.25;31.17;;;16.10;99.90;;;;;;4996829;28;20529;-70
2023/05/22 04:31:39;;;;;;;32.67;29.67;;;16.10;99.90;;;;;;5003387;28;20452;-70
2023/05/22 04:34:06;;;;;;;32.97;29.98;;;16.20;99.90;;;;;;4999089;28;20574;-71
2023/05/22 04:36:34;;;;;;;33.30;30.40;;;16.20;99.90;;;;;;4998778;28;20463;-70
2023/05/22 04:39:02;;;;;;;32.80;29.90;;;16.20;99.90;;;;;;5003780;28;20651;-71
2023/05/22 04:41:29;;;;;;;32.70;29.80;;;16.10;99.90;;;;;;5004057;28;20459;-71
2023/05/22 04:43:57;;;;;;;32.40;29.60;;;16.20;99.90;;;;;;5004387;28;20509;-71
2023/05/22 04:46:24;;;;;;;31.70;28.63;;;16.20;99.90;;;;;;5002262;28;20859;-73
2023/05/22 04:48:51;;;;;;;33.03;30.13;;;16.20;99.90;;;;;;5000547;28;20925;-71
2023/05/22 04:51:18;;;;;;;32.83;29.88;;;16.10;99.90;;;;;;5008432;28;20427;-70
2023/05/22 04:53:48;;;;;;;33.13;30.23;;;16.10;99.90;;;;;;5000451;28;20463;-71
2023/05/22 04:56:16;;;;;;;32.53;29.83;;;16.10;99.90;;;;;;5002588;28;20424;-72
2023/05/22 04:58:43;;;;;;;32.80;29.75;;;16.20;99.90;;;;;;4994821;28;20907;-72
2023/05/22 05:01:09;;;;;;;32.45;29.75;;;16.20;99.90;;;;;;5005526;28;20493;-71
2023/05/22 05:03:36;;;;;;;32.00;29.10;;;16.30;99.90;;;;;;5001192;28;20901;-71
2023/05/22 05:06:04;;;;;;;32.83;30.03;;;16.30;99.90;;;;;;5000097;28;20446;-71
2023/05/22 05:08:31;;;;;;;31.85;29.15;;;16.30;99.90;;;;;;5007950;28;20496;-71
2023/05/22 05:10:57;;;;;;;32.92;30.15;;;16.40;99.90;;;;;;5003238;28;20436;-74
2023/05/22 05:13:25;;;;;;;33.63;30.58;;;16.40;99.90;;;;;;4998716;28;20436;-70
2023/05/22 05:15:54;;;;;;;33.50;30.70;;;16.40;99.90;;;;;;5005117;28;20439;-70
2023/05/22 05:18:21;;;;;;;33.75;30.77;;;16.30;99.90;;;;;;5005777;28;20448;-70
2023/05/22 05:20:48;;;;;;;33.42;30.52;;;16.30;99.90;;;;;;5005150;28;20428;-71
2023/05/22 05:23:14;;;;;;;34.22;31.27;;;16.40;99.90;;;;;;5006224;28;20519;-73
2023/05/22 05:25:41;;;;;;;32.90;30.10;;;16.40;99.90;;;;;;5006630;28;20790;-71
2023/05/22 05:28:10;;;;;;;33.80;31.00;;;16.40;99.90;;;;;;5004641;28;20429;-71
2023/05/22 05:30:38;;;;;;;35.70;32.60;;;16.40;99.90;;;;;;5005050;28;20448;-69
2023/05/22 05:33:06;;;;;;;35.58;32.45;;;16.40;99.90;;;;;;5004765;28;20919;-68
2023/05/22 05:35:32;;;;;;;37.30;34.03;;;16.30;99.90;;;;;;5017661;22;20451;-71
2023/05/22 05:37:59;;;;;;;36.83;33.63;;;16.30;99.90;;;;;;5009178;28;20439;-71
2023/05/22 05:40:26;;;;;;;34.83;31.73;;;16.30;99.90;;;;;;5007309;28;20423;-72
2023/05/22 05:42:53;;;;;;;34.92;31.92;;;16.30;99.90;;;;;;5011829;28;20421;-73
2023/05/22 05:45:19;;;;;;;35.50;32.40;;;16.40;99.90;;;;;;5006049;28;20424;-72
2023/05/22 05:47:47;;;;;;;35.67;32.50;;;16.50;99.90;;;;;;5006025;28;20436;-73
2023/05/22 05:50:14;;;;;;;35.77;32.57;;;16.50;99.90;;;;;;5014586;28;20449;-74
2023/05/22 05:52:41;;;;;;;34.83;31.80;;;16.60;99.90;;;;;;5010603;28;20456;-73
2023/05/22 05:55:09;;;;;;;36.03;32.88;;;16.60;99.90;;;;;;4992155;28;20417;-72
2023/05/22 05:57:35;;;;;;;34.53;31.33;;;16.60;99.90;;;;;;5005242;28;20412;-73
2023/05/22 06:00:04;;;;;;;35.65;32.65;;;16.70;99.90;;;;;;5001439;28;20436;-72
2023/05/22 06:02:31;;;;;;;36.15;33.15;;;16.80;99.90;;;;;;5007205;28;20428;-73
2023/05/22 06:04:59;;;;;;;33.20;30.30;;;16.80;99.90;;;;;;4994094;28;20531;-73
2023/05/22 06:07:27;;;;;;;34.40;31.45;;;16.90;99.90;;;;;;5002411;28;20436;-74
2023/05/22 06:09:55;;;;;;;33.55;30.75;;;16.90;99.90;;;;;;5002912;28;20454;-73
2023/05/22 06:12:21;;;;;;;34.95;31.85;;;16.90;99.90;;;;;;5007030;28;20421;-74
2023/05/22 06:14:49;;;;;;;35.75;32.45;;;16.90;99.90;;;;;;5012297;28;20418;-72
2023/05/22 06:17:16;;;;;;;34.53;31.42;;;16.90;99.90;;;;;;5015273;28;20427;-73
2023/05/22 06:19:42;;;;;;;35.10;32.03;;;16.90;99.90;;;;;;5012273;28;20496;-74
2023/05/22 06:22:10;;;;;;;34.15;31.15;;;16.90;99.90;;;;;;5026411;28;20408;-72
2023/05/22 06:24:37;;;;;;;38.72;35.13;;;16.90;99.90;;;;;;5024068;28;20439;-73
2023/05/22 06:27:04;;;;;;;37.20;34.00;;;16.90;99.90;;;;;;5033911;28;20430;-72
2023/05/22 06:29:31;;;;;;;38.10;34.70;;;16.90;99.90;;;;;;5022107;28;20397;-73
2023/05/22 06:31:58;;;;;;;37.85;34.45;;;17.00;99.90;;;;;;5034361;28;20414;-73
2023/05/22 06:34:26;;;;;;;38.60;35.00;;;16.90;99.90;;;;;;5029660;28;20509;-72
2023/05/22 06:36:53;;;;;;;39.83;36.22;;;17.00;99.90;;;;;;5028265;28;20411;-73
2023/05/22 06:39:21;;;;;;;37.58;34.08;;;17.10;99.90;;;;;;5019918;28;20424;-73
2023/05/22 06:41:48;;;;;;;38.72;35.22;;;17.10;99.90;;;;;;5028478;28;20393;-73
2023/05/22 06:44:14;;;;;;;40.78;37.00;;;17.20;99.90;;;;;;5031690;28;20421;-73
2023/05/22 06:46:41;;;;;;;40.67;37.05;;;17.40;99.90;;;;;;5040683;28;20407;-73
2023/05/22 06:49:08;;;;;;;39.60;36.08;;;17.60;99.90;;;;;;5029778;28;20439;-74
2023/05/22 06:51:34;;;;;;;41.50;37.80;;;17.70;99.90;;;;;;5012373;28;20472;-74
2023/05/22 06:54:03;;;;;;;42.28;38.38;;;17.70;99.90;;;;;;5009584;28;20432;-73
2023/05/22 06:56:31;;;;;;;41.63;37.63;;;17.70;99.90;;;;;;5015545;28;20431;-73
2023/05/22 06:58:58;;;;;;;42.35;38.25;;;17.80;99.90;;;;;;5015691;28;20416;-72
2023/05/22 07:01:25;;;;;;;43.50;39.40;;;17.80;99.90;;;;;;5011407;28;20464;-73
2023/05/22 07:03:52;;;;;;;42.92;38.92;;;17.90;99.90;;;;;;5011560;28;20443;-73
2023/05/22 07:06:19;;;;;;;44.33;40.33;;;17.90;99.90;;;;;;5009692;28;20914;-73
2023/05/22 07:08:45;;;;;;;43.60;39.60;;;17.90;99.90;;;;;;5006978;28;20432;-74
2023/05/22 07:11:12;;;;;;;44.28;39.95;;;17.90;99.90;;;;;;4993177;28;20425;-73
2023/05/22 07:13:40;;;;;;;42.90;38.92;;;18.00;99.90;;;;;;4994590;28;20428;-74
2023/05/22 07:16:07;;;;;;;42.78;38.88;;;18.00;99.90;;;;;;5008996;28;20441;-75
2023/05/22 07:18:34;;;;;;;44.03;40.03;;;18.10;99.90;;;;;;5007917;28;20496;-74
2023/05/22 07:21:01;;;;;;;45.15;41.03;;;18.20;99.90;;;;;;5007446;28;20428;-74
2023/05/22 07:23:28;;;;;;;44.10;40.03;;;18.30;99.90;;;;;;4999956;28;20953;-75
2023/05/22 07:25:55;;;;;;;44.60;40.60;;;18.50;99.90;;;;;;4992579;28;20422;-73
2023/05/22 07:28:21;;;;;;;44.42;40.42;;;18.50;99.90;;;;;;5003554;28;20539;-73
2023/05/22 07:30:50;;;;;;;47.20;42.80;;;18.60;99.90;;;;;;5002216;28;20445;-74
2023/05/22 07:33:16;;;;;;;46.80;42.70;;;18.50;99.90;;;;;;5004403;28;20438;-74
2023/05/22 07:35:44;;;;;;;48.75;44.45;;;18.40;99.90;;;;;;4991782;28;20435;-74
2023/05/22 07:38:11;;;;;;;47.75;43.35;;;18.30;99.90;;;;;;4971743;28;20456;-74
2023/05/22 07:40:37;;;;;;;46.63;42.33;;;18.30;99.90;;;;;;4973132;28;20416;-74
2023/05/22 07:43:04;;;;;;;47.67;43.47;;;18.30;99.90;;;;;;4973345;28;20435;-74
2023/05/22 07:45:31;;;;;;;47.85;43.45;;;18.30;99.90;;;;;;4983033;28;20432;-74
2023/05/22 07:48:00;;;;;;;50.75;45.97;;;18.30;99.90;;;;;;4985017;28;20839;-73
2023/05/22 07:50:29;;;;;;;48.25;43.67;;;18.40;99.90;;;;;;4978813;28;20720;-73
2023/05/22 07:52:55;;;;;;;48.42;43.95;;;18.40;99.90;;;;;;4976491;28;20866;-74
2023/05/22 07:55:22;;;;;;;47.67;43.38;;;18.30;99.90;;;;;;4978547;28;20423;-74
2023/05/22 07:57:49;;;;;;;48.60;44.20;;;18.30;99.90;;;;;;4972491;28;20416;-75
2023/05/22 08:00:17;;;;;;;45.03;40.93;;;18.40;99.90;;;;;;4981005;28;20432;-74
2023/05/22 08:02:43;;;;;;;48.70;44.37;;;18.60;99.90;;;;;;4975364;28;20449;-75
2023/05/22 08:05:12;;;;;;;51.15;46.47;;;18.80;99.90;;;;;;4987033;28;20422;-74
2023/05/22 08:07:38;;;;;;;50.42;45.95;;;18.90;99.90;;;;;;4976236;28;20901;-74
2023/05/22 08:10:13;;;;;;;51.22;46.63;;;19.00;99.90;;;;;;4971678;28;20431;-74
2023/05/22 08:12:39;;;;;;;53.08;48.28;;;19.10;99.90;;;;;;4970143;28;20939;-75
2023/05/22 08:15:07;;;;;;;50.50;46.10;;;19.20;99.80;;;;;;4983699;28;20438;-74
2023/05/22 08:17:34;;;;;;;50.25;45.75;;;19.30;99.80;;;;;;4995197;28;20517;-73
2023/05/22 08:20:01;;;;;;;51.55;46.78;;;19.50;99.30;;;;;;4994567;28;20428;-75
2023/05/22 08:22:30;;;;;;;52.33;47.63;;;19.50;98.40;;;;;;4978121;28;20426;-73
2023/05/22 08:24:57;;;;;;;49.95;45.45;;;19.60;98.40;;;;;;4989725;28;20506;-75
2023/05/22 08:27:24;;;;;;;47.67;43.47;;;19.60;98.00;;;;;;4971445;28;20449;-74
2023/05/22 08:29:50;;;;;;;49.35;44.95;;;19.60;97.30;;;;;;4981205;28;20443;-73
2023/05/22 08:32:17;;;;;;;49.45;45.05;;;19.60;98.10;;;;;;4991570;28;20544;-74
2023/05/22 08:34:44;;;;;;;48.78;44.42;;;19.70;97.90;;;;;;5010112;28;20423;-75
2023/05/22 08:37:12;;;;;;;45.55;41.65;;;19.70;97.20;;;;;;4985653;28;20448;-75
2023/05/22 08:39:40;;;;;;;45.33;41.38;;;19.80;97.30;;;;;;4998136;28;20426;-73
2023/05/22 08:42:08;;;;;;;44.58;40.78;;;20.00;97.20;;;;;;4987398;28;20424;-75
2023/05/22 08:44:35;;;;;;;42.97;39.37;;;20.20;96.50;;;;;;4973823;28;20420;-75
2023/05/22 08:47:03;;;;;;;42.78;39.08;;;20.40;95.40;;;;;;4990410;28;20436;-75
2023/05/22 08:49:30;;;;;;;43.95;40.20;;;20.50;95.10;;;;;;4994714;28;20414;-74
2023/05/22 08:52:03;;;;;;;41.20;37.75;;;20.70;94.70;;;;;;4981794;28;20425;-76
2023/05/22 08:54:31;;;;;;;40.72;37.22;;;20.80;94.30;;;;;;4992063;28;20421;-74
2023/05/22 08:56:59;;;;;;;40.25;36.75;;;20.80;93.60;;;;;;4982969;28;20445;-76
2023/05/22 08:59:27;;;;;;;40.08;36.78;;;20.90;93.50;;;;;;5005283;28;20421;-74
2023/05/22 09:01:55;;;;;;;41.25;37.65;;;20.90;93.20;;;;;;4989733;28;20440;-74
2023/05/22 09:04:22;;;;;;;42.15;38.47;;;21.00;93.30;;;;;;4993240;28;20477;-73
2023/05/22 09:06:49;;;;;;;41.55;37.85;;;21.00;93.10;;;;;;4984320;28;20534;-73
2023/05/22 09:09:16;;;;;;;44.25;40.15;;;20.90;92.60;;;;;;5003214;28;20439;-73
2023/05/22 09:11:43;;;;;;;46.25;42.05;;;20.80;92.30;;;;;;4987940;28;20419;-74
2023/05/22 09:14:14;;;;;;;47.70;43.40;;;20.60;92.80;;;;;;5004862;28;20429;-74
2023/05/22 09:16:45;;;;;;;50.00;45.60;;;20.30;93.60;;;;;;5001069;28;20434;-74
2023/05/22 09:19:13;;;;;;;52.90;48.15;;;20.10;94.20;;;;;;4990465;28;20431;-73
2023/05/22 09:21:40;;;;;;;51.22;46.63;;;19.90;94.80;;;;;;4985404;28;20420;-74
2023/05/22 09:24:09;;;;;;;50.58;46.10;;;19.90;95.20;;;;;;5008474;28;20721;-73
2023/05/22 09:26:36;;;;;;;51.28;46.58;;;20.00;94.80;;;;;;4998616;28;20440;-72
2023/05/22 09:29:05;;;;;;;51.47;46.88;;;20.00;94.40;;;;;;4980204;28;20818;-74
2023/05/22 09:31:40;;;;;;;51.80;47.08;;;19.80;95.10;;;;;;4992173;28;20438;-72
2023/05/22 09:34:09;;;;;;;50.33;45.80;;;19.70;95.50;;;;;;4998009;28;20443;-73
2023/05/22 09:36:36;;;;;;;46.63;42.42;;;19.60;95.90;;;;;;4983892;28;20440;-73
2023/05/22 09:39:04;;;;;;;43.83;40.03;;;19.60;96.30;;;;;;4992419;28;20934;-73
2023/05/22 09:41:35;;;;;;;43.05;39.25;;;19.70;96.70;;;;;;4992786;28;20525;-74
2023/05/22 09:44:01;;;;;;;41.90;38.10;;;19.70;95.20;;;;;;4985691;28;20442;-72
2023/05/22 09:46:28;;;;;;;40.97;37.28;;;19.80;95.40;;;;;;4987416;28;20434;-75
2023/05/22 09:48:56;;;;;;;37.17;33.67;;;19.80;95.20;;;;;;4987299;28;21038;-73
2023/05/22 09:51:26;;;;;;;36.65;33.35;;;19.80;94.50;;;;;;4984519;28;20438;-74
2023/05/22 09:54:02;;;;;;;34.13;31.02;;;19.90;95.40;;;;;;4980808;28;20473;-73
2023/05/22 09:56:31;;;;;;;34.78;31.42;;;19.90;94.20;;;;;;4987247;28;20462;-73
2023/05/22 09:58:59;;;;;;;36.42;32.95;;;19.90;94.80;;;;;;4978849;28;20562;-74
2023/05/22 10:01:27;;;;;;;36.00;32.70;;;19.80;94.60;;;;;;4986862;28;20465;-73
2023/05/22 10:03:57;;;;;;;35.43;32.23;;;19.80;94.70;;;;;;4991370;28;20914;-76
2023/05/22 10:06:25;;;;;;;38.28;34.58;;;19.70;94.70;;;;;;4990037;28;20499;-75
2023/05/22 10:08:58;;;;;;;35.53;32.22;;;19.70;94.60;;;;;;4991961;28;20428;-75
2023/05/22 10:11:29;;;;;;;34.90;31.60;;;19.60;95.90;;;;;;4980863;28;20435;-74
2023/05/22 10:13:57;;;;;;;34.60;31.30;;;19.80;96.30;;;;;;4999315;28;20422;-75
2023/05/22 10:16:25;;;;;;;36.00;32.70;;;19.90;95.30;;;;;;4986416;28;20830;-75
2023/05/22 10:18:54;;;;;;;36.20;32.70;;;20.00;95.10;;;;;;4987695;28;20454;-75
2023/05/22 10:21:22;;;;;;;38.03;34.53;;;20.10;94.20;;;;;;4988829;28;20522;-75
2023/05/22 10:23:50;;;;;;;38.15;34.55;;;20.20;93.50;;;;;;4988020;28;20422;-74
2023/05/22 10:26:18;;;;;;;37.75;34.17;;;20.10;93.70;;;;;;5004073;28;20533;-73
2023/05/22 10:28:53;;;;;;;37.63;33.83;;;20.00;93.90;;;;;;5001808;28;20445;-74
2023/05/22 10:31:28;;;;;;;35.85;32.65;;;20.00;94.00;;;;;;4991328;28;20447;-75
2023/05/22 10:33:59;;;;;;;37.67;34.17;;;20.10;94.30;;;;;;4990346;28;20434;-73
2023/05/22 10:36:40;;;;;;;39.72;35.95;;;20.30;94.00;;;;;;5001676;28;20441;-73
2023/05/22 10:39:23;;;;;;;38.22;34.63;;;20.50;93.10;;;;;;5000488;28;20456;-73
2023/05/22 10:41:49;;;;;;;41.80;37.70;;;20.70;92.50;;;;;;5012725;28;20423;-73
2023/05/22 10:44:17;;;;;;;41.00;36.97;;;20.70;92.70;;;;;;5007391;28;20436;-74
2023/05/22 10:46:48;;;;;;;40.13;36.22;;;20.60;92.90;;;;;;5010146;28;20522;-73
2023/05/22 10:49:22;;;;;;;39.60;35.72;;;20.70;93.10;;;;;;5006293;28;20494;-73
2023/05/22 10:51:55;;;;;;;37.80;34.15;;;20.80;92.60;;;;;;5010545;28;20420;-72
2023/05/22 10:54:38;;;;;;;37.17;33.53;;;20.90;92.30;;;;;;5010698;28;20438;-74
2023/05/22 10:57:10;;;;;;;36.35;32.85;;;20.90;92.30;;;;;;5000049;28;20825;-73
2023/05/22 10:59:37;;;;;;;34.63;31.42;;;21.00;92.60;;;;;;5007378;28;20438;-73
2023/05/22 11:02:06;;;;;;;38.58;34.80;;;21.10;92.30;;;;;;5005719;28;20463;-73
2023/05/22 11:04:33;;;;;;;37.53;33.83;;;21.20;90.60;;;;;;5007316;28;20433;-73
2023/05/22 11:07:06;;;;;;;40.25;36.05;;;21.00;91.30;;;;;;5004337;28;20447;-73
2023/05/22 11:09:38;;;;;;;41.03;37.13;;;21.10;91.10;;;;;;5003865;28;20517;-74
2023/05/22 11:12:16;;;;;;;36.85;33.42;;;21.10;90.80;;;;;;4990943;28;20475;-73
2023/05/22 11:14:47;;;;;;;40.05;36.35;;;21.30;90.60;;;;;;5006198;28;20464;-73
2023/05/22 11:17:17;;;;;;;40.70;36.70;;;21.30;90.00;;;;;;5008465;28;20875;-72
2023/05/22 11:19:44;;;;;;;40.15;36.30;;;21.20;90.10;;;;;;5010416;28;20424;-74
2023/05/22 11:22:13;;;;;;;37.03;33.63;;;21.00;90.80;;;;;;5005590;28;20450;-74
2023/05/22 11:24:40;;;;;;;36.93;33.43;;;21.10;91.50;;;;;;5013932;28;20495;-72
2023/05/22 11:27:07;;;;;;;36.93;33.33;;;21.30;90.20;;;;;;5016253;28;20641;-75
2023/05/22 11:29:36;;;;;;;36.20;32.90;;;21.40;90.30;;;;;;5007260;28;20428;-71
2023/05/22 11:32:03;;;;;;;39.47;35.75;;;21.50;89.20;;;;;;5007205;28;20991;-71
2023/05/22 11:34:30;;;;;;;39.13;35.33;;;21.60;88.30;;;;;;5004831;28;20432;-67
2023/05/22 11:37:00;;;;;;;36.13;32.72;;;21.70;87.80;;;;;;5002925;28;20431;-64
2023/05/22 11:39:28;;;;;;;37.07;33.57;;;21.80;88.70;;;;;;4998942;28;20433;-64
2023/05/22 11:41:54;;;;;;;36.97;33.28;;;22.00;85.50;;;;;;5006655;28;20420;-64
2023/05/22 11:44:21;;;;;;;36.22;32.83;;;22.20;85.90;;;;;;5004885;28;20432;-67
2023/05/22 11:46:48;;;;;;;33.05;29.98;;;22.40;85.30;;;;;;5006027;28;20418;-66
2023/05/22 11:49:16;;;;;;;33.20;30.23;;;22.50;84.60;;;;;;5002624;28;20918;-66
2023/05/22 11:51:42;;;;;;;36.20;32.80;;;22.70;83.10;;;;;;5007016;28;20437;-65
2023/05/22 11:54:10;;;;;;;33.78;30.67;;;22.60;80.90;;;;;;5001690;28;20437;-65
2023/05/22 11:56:38;;;;;;;36.33;33.03;;;22.60;82.70;;;;;;5007297;28;20912;-64
2023/05/22 11:59:04;;;;;;;38.15;34.38;;;22.70;83.00;;;;;;5003446;28;20437;-64
2023/05/22 12:01:32;;;;;;;57.63;43.42;;;22.70;81.40;;;;;;5005650;28;20719;-66
2023/05/22 12:03:59;;;;;;;33.97;30.63;;;22.80;82.90;;;;;;5007855;28;20452;-66
2023/05/22 12:06:26;;;;;;;32.53;29.42;;;23.00;82.80;;;;;;5005172;28;20443;-66
2023/05/22 12:08:52;;;;;;;32.08;29.15;;;23.30;81.00;;;;;;4998365;28;20428;-65
2023/05/22 12:11:20;;;;;;;32.30;29.40;;;23.50;79.80;;;;;;5003393;28;20443;-66
2023/05/22 12:13:50;;;;;;;33.15;29.95;;;23.70;77.70;;;;;;5005020;28;20863;-64
2023/05/22 12:16:20;;;;;;;34.25;31.25;;;24.00;75.40;;;;;;5008981;28;20416;-66
2023/05/22 12:18:47;;;;;;;34.38;31.08;;;24.00;74.50;;;;;;5008341;28;20876;-66
2023/05/22 12:21:13;;;;;;;32.90;30.00;;;23.90;75.30;;;;;;5010510;28;20432;-64
2023/05/22 12:23:48;;;;;;;32.20;29.30;;;24.00;74.60;;;;;;5014820;28;20442;-66
2023/05/22 12:26:15;;;;;;;33.70;30.70;;;23.90;74.10;;;;;;5010253;28;20443;-66
2023/05/22 12:28:42;;;;;;;33.00;30.23;;;23.70;75.40;;;;;;5015433;28;20459;-65
2023/05/22 12:31:10;;;;;;;30.98;28.15;;;23.80;75.30;;;;;;5011335;28;20430;-67
2023/05/22 12:33:39;;;;;;;31.60;28.80;;;24.20;75.60;;;;;;4998636;28;20438;-67